Time;durP1;ratioP1;P1;durP2;ratioP2;P2;SDS_P1;SDS_P2;PMS_P1;PMS_P2;Temp;Humidity;BMP_temperature;BMP_pressure;BME280_temperature;BME280_humidity;BME280_pressure;Samples;Min_cycle;Max_cycle;Signal;HPM_P1;HPM_P2
2022/05/28 05:23:21;;;;;;;;;;;;;;;25.85;93.27;97732.28;5013373;23;19970;-73
2022/05/28 05:25:48;;;;;;;;;;;;;;;25.53;94.10;97732.94;4901615;29;20422;-72
2022/05/28 05:28:16;;;;;;;;;;;;;;;25.41;96.06;97723.44;4895154;29;19954;-72
2022/05/28 05:30:43;;;;;;;;;;;;;;;25.27;98.49;97719.47;4882824;29;19953;-72
2022/05/28 05:33:10;;;;;;;;;;;;;;;25.31;97.22;97708.56;4883343;29;19956;-72
2022/05/28 05:35:38;;;;;;;;;;;;;;;25.19;99.01;97715.50;4882675;29;19948;-72
2022/05/28 05:38:05;;;;;;;;;;;;;;;25.04;100.00;97714.13;4883027;29;19949;-72
2022/05/28 05:40:34;;;;;;;;;;;;;;;25.01;100.00;97712.28;4883041;29;19952;-72
2022/05/28 05:43:02;;;;;;;;;;;;;;;24.85;100.00;97710.84;4898384;29;19958;-72
2022/05/28 05:45:29;;;;;;;;;;;;;;;24.76;100.00;97706.06;4893860;29;19971;-72
2022/05/28 05:47:56;;;;;;;;;;;;;;;24.78;100.00;97703.53;4882707;29;19950;-72
2022/05/28 05:50:24;;;;;;;;;;;;;;;24.79;100.00;97710.03;4882331;29;19956;-72
2022/05/28 05:52:51;;;;;;;;;;;;;;;24.70;100.00;97710.16;4882529;29;19948;-72
2022/05/28 05:55:18;;;;;;;;;;;;;;;24.64;100.00;97713.00;4882848;29;19951;-72
2022/05/28 05:57:46;;;;;;;;;;;;;;;24.73;100.00;97718.53;4882623;29;19952;-72
2022/05/28 06:00:13;;;;;;;;;;;;;;;24.76;100.00;97716.72;4882684;29;19962;-72
2022/05/28 06:02:40;;;;;;;;;;;;;;;24.84;100.00;97714.22;4882580;29;19959;-72
2022/05/28 06:05:08;;;;;;;;;;;;;;;24.98;100.00;97711.22;4885216;29;19971;-72
2022/05/28 06:07:36;;;;;;;;;;;;;;;24.99;100.00;97709.13;4886805;29;19949;-72
2022/05/28 06:10:03;;;;;;;;;;;;;;;25.05;100.00;97716.47;4886496;29;19952;-72
2022/05/28 06:12:30;;;;;;;;;;;;;;;25.13;95.87;97716.78;4870641;29;19950;-72
2022/05/28 06:14:58;;;;;;;;;;;;;;;25.12;96.38;97715.97;4886023;29;19951;-72
2022/05/28 06:17:25;;;;;;;;;;;;;;;25.03;98.51;97716.19;4886029;29;19952;-72
2022/05/28 06:19:52;;;;;;;;;;;;;;;24.99;100.00;97709.91;4886411;29;19948;-71
2022/05/28 06:22:19;;;;;;;;;;;;;;;24.89;100.00;97722.06;4869790;29;20411;-71
2022/05/28 06:24:47;;;;;;;;;;;;;;;24.83;100.00;97724.06;4886085;29;19973;-71
2022/05/28 06:27:14;;;;;;;;;;;;;;;24.77;100.00;97716.25;4886635;29;19956;-71
2022/05/28 06:29:41;;;;;;;;;;;;;;;24.68;100.00;97724.19;4885773;29;19954;-71
2022/05/28 06:32:09;;;;;;;;;;;;;;;24.69;100.00;97720.84;4886041;29;20246;-71
2022/05/28 06:34:36;;;;;;;;;;;;;;;24.75;100.00;97726.59;4885701;29;19955;-71
2022/05/28 06:37:06;;;;;;;;;;;;;;;24.74;100.00;97731.53;4869513;29;19950;-71
2022/05/28 06:39:34;;;;;;;;;;;;;;;24.72;100.00;97724.75;4885914;29;19947;-71
2022/05/28 06:42:03;;;;;;;;;;;;;;;24.76;100.00;97731.03;4885881;29;19951;-71
2022/05/28 06:44:30;;;;;;;;;;;;;;;24.82;100.00;97722.53;4869862;29;20394;-71
2022/05/28 06:46:58;;;;;;;;;;;;;;;24.75;100.00;97718.00;4885928;29;19953;-71
2022/05/28 06:49:25;;;;;;;;;;;;;;;24.80;100.00;97720.94;4886067;29;20358;-71
2022/05/28 06:51:52;;;;;;;;;;;;;;;24.88;100.00;97726.19;4886079;29;19953;-71
2022/05/28 06:54:19;;;;;;;;;;;;;;;24.89;100.00;97724.91;4886588;29;19943;-71
2022/05/28 06:56:46;;;;;;;;;;;;;;;25.01;100.00;97721.66;4886012;29;19957;-71
2022/05/28 06:59:14;;;;;;;;;;;;;;;24.97;100.00;97718.22;4885246;29;20289;-71
2022/05/28 07:01:41;;;;;;;;;;;;;;;24.98;100.00;97721.88;4885493;29;19950;-71
2022/05/28 07:04:08;;;;;;;;;;;;;;;24.99;100.00;97721.34;4886198;29;19946;-71
2022/05/28 07:06:36;;;;;;;;;;;;;;;25.13;100.00;97725.34;4885365;29;20400;-71
2022/05/28 07:09:07;;;;;;;;;;;;;;;25.20;100.00;97725.66;4868894;29;19946;-71
2022/05/28 07:11:34;;;;;;;;;;;;;;;25.23;100.00;97718.16;4869087;29;19963;-71
2022/05/28 07:14:01;;;;;;;;;;;;;;;25.23;100.00;97721.78;4885074;29;19953;-71
2022/05/28 07:16:29;;;;;;;;;;;;;;;25.38;100.00;97718.75;4885589;29;19947;-71
2022/05/28 07:18:56;;;;;;;;;;;;;;;25.48;100.00;97722.22;4885205;29;19952;-71
2022/05/28 07:21:23;;;;;;;;;;;;;;;25.55;100.00;97718.88;4885097;29;19950;-71
2022/05/28 07:23:50;;;;;;;;;;;;;;;25.48;100.00;97710.78;4885400;29;19942;-71
2022/05/28 07:26:17;;;;;;;;;;;;;;;25.45;100.00;97712.59;4884886;29;20292;-71
2022/05/28 07:28:46;;;;;;;;;;;;;;;25.67;100.00;97709.84;4884641;29;19958;-71
2022/05/28 07:31:14;;;;;;;;;;;;;;;25.67;100.00;97712.69;4884992;29;20243;-71
2022/05/28 07:33:43;;;;;;;;;;;;;;;25.38;100.00;97705.22;4884553;29;19949;-71
2022/05/28 07:36:11;;;;;;;;;;;;;;;25.53;100.00;97710.78;4884877;29;20360;-71
2022/05/28 07:38:39;;;;;;;;;;;;;;;25.67;100.00;97711.91;4885076;29;19953;-71
2022/05/28 07:41:08;;;;;;;;;;;;;;;25.72;100.00;97714.81;4884504;29;20252;-71
2022/05/28 07:43:36;;;;;;;;;;;;;;;25.59;100.00;97713.69;4885005;29;19955;-71
2022/05/28 07:46:09;;;;;;;;;;;;;;;25.74;100.00;97709.34;4884555;29;19974;-71
2022/05/28 07:48:36;;;;;;;;;;;;;;;25.72;100.00;97706.22;4884789;29;19955;-71
2022/05/28 07:51:06;;;;;;;;;;;;;;;25.74;100.00;97700.75;4883698;29;19955;-71
2022/05/28 07:53:33;;;;;;;;;;;;;;;25.93;100.00;97706.78;4884439;29;19951;-71
2022/05/28 07:56:01;;;;;;;;;;;;;;;25.92;100.00;97705.25;4884920;29;19951;-71
2022/05/28 07:58:28;;;;;;;;;;;;;;;26.10;100.00;97704.75;4884453;29;19955;-71
2022/05/28 08:00:56;;;;;;;;;;;;;;;26.00;100.00;97704.22;4885062;29;19969;-71
2022/05/28 08:03:25;;;;;;;;;;;;;;;25.97;100.00;97698.72;4884097;29;19977;-72
2022/05/28 08:05:53;;;;;;;;;;;;;;;26.03;100.00;97705.28;4884206;29;19969;-72
2022/05/28 08:08:22;;;;;;;;;;;;;;;26.15;100.00;97700.38;4884476;29;19946;-71
2022/05/28 08:10:49;;;;;;;;;;;;;;;26.26;100.00;97697.53;4884561;29;19946;-71
2022/05/28 08:13:19;;;;;;;;;;;;;;;26.37;100.00;97694.69;4883853;29;19956;-71
2022/05/28 08:15:48;;;;;;;;;;;;;;;26.42;100.00;97702.50;4884144;29;19961;-71
2022/05/28 08:18:16;;;;;;;;;;;;;;;26.11;100.00;97692.03;4884317;29;19957;-71
2022/05/28 08:23:30;;;;;;;;;;;;;;;25.87;100.00;97689.56;4884221;29;19999;-71
2022/05/28 08:25:57;;;;;;;;;;;;;;;26.15;100.00;97694.63;4883764;29;19971;-71
2022/05/28 08:28:25;;;;;;;;;;;;;;;26.34;100.00;97696.50;4883526;29;19946;-71
2022/05/28 08:30:52;;;;;;;;;;;;;;;26.39;100.00;97697.81;4883812;29;20330;-71
2022/05/28 08:33:20;;;;;;;;;;;;;;;26.29;100.00;97688.69;4876284;29;19950;-71
2022/05/28 08:35:50;;;;;;;;;;;;;;;26.31;100.00;97699.66;4883701;29;19956;-71
2022/05/28 08:38:18;;;;;;;;;;;;;;;26.19;100.00;97687.34;4883733;29;19950;-71
2022/05/28 08:41:15;;;;;;;;;;;;;;;26.38;100.00;97694.19;4883966;29;19952;-71
2022/05/28 08:43:51;;;;;;;;;;;;;;;26.31;100.00;97691.03;4883322;29;19956;-72
2022/05/28 08:46:19;;;;;;;;;;;;;;;26.27;100.00;97696.22;4884272;29;19963;-71
2022/05/28 08:48:48;;;;;;;;;;;;;;;26.31;100.00;97694.66;4883653;29;20261;-71
2022/05/28 08:51:43;;;;;;;;;;;;;;;26.39;100.00;97698.59;4883215;29;19956;-71
2022/05/28 08:54:15;;;;;;;;;;;;;;;26.49;100.00;97688.44;4883990;29;20355;-71
2022/05/28 08:56:43;;;;;;;;;;;;;;;26.44;100.00;97689.22;4883510;29;19955;-71
2022/05/28 08:59:19;;;;;;;;;;;;;;;26.28;100.00;97697.81;4883485;29;19949;-71
2022/05/28 09:01:48;;;;;;;;;;;;;;;26.40;100.00;97694.44;4883562;29;19946;-71
2022/05/28 09:04:21;;;;;;;;;;;;;;;26.55;100.00;97692.13;4883493;29;19955;-71
2022/05/28 09:06:54;;;;;;;;;;;;;;;26.67;100.00;97687.16;4883328;29;19966;-71
2022/05/28 09:09:26;;;;;;;;;;;;;;;26.85;100.00;97691.63;4883773;29;19943;-71
2022/05/28 09:11:59;;;;;;;;;;;;;;;26.84;100.00;97685.09;4884012;29;19950;-71
2022/05/28 09:14:26;;;;;;;;;;;;;;;26.72;100.00;97678.56;4883128;29;20371;-71
2022/05/28 09:16:55;;;;;;;;;;;;;;;26.80;100.00;97681.69;4883240;29;20264;-71
2022/05/28 09:19:25;;;;;;;;;;;;;;;26.86;100.00;97673.09;4882913;29;19958;-71
2022/05/28 09:21:52;;;;;;;;;;;;;;;27.09;100.00;97686.91;4883309;29;19975;-71
2022/05/28 09:24:22;;;;;;;;;;;;;;;27.13;100.00;97680.88;4866787;29;19953;-71
2022/05/28 09:27:08;;;;;;;;;;;;;;;27.00;100.00;97672.03;4882892;29;19968;-71
2022/05/28 09:29:54;;;;;;;;;;;;;;;26.98;100.00;97677.50;4883109;29;19944;-71
2022/05/28 09:32:24;;;;;;;;;;;;;;;26.94;100.00;97672.06;4883667;29;19950;-71
2022/05/28 09:35:01;;;;;;;;;;;;;;;26.88;100.00;97673.34;4883750;29;19948;-71
2022/05/28 09:37:36;;;;;;;;;;;;;;;26.94;100.00;97677.00;4883222;29;19952;-71
2022/05/28 09:40:13;;;;;;;;;;;;;;;26.77;100.00;97664.75;4884923;29;20330;-71
2022/05/28 09:42:59;;;;;;;;;;;;;;;26.56;100.00;97673.59;4887531;29;19960;-71
2022/05/28 09:45:32;;;;;;;;;;;;;;;26.58;100.00;97661.63;4887260;29;20334;-71
2022/05/28 09:48:00;;;;;;;;;;;;;;;26.63;100.00;97661.59;4887101;29;20343;-71
2022/05/28 09:50:27;;;;;;;;;;;;;;;26.52;100.00;97653.00;4887699;29;19952;-71
2022/05/28 09:55:52;;;;;;;;;;;;;;;26.93;100.00;97659.00;4887110;29;19951;-71
2022/05/28 09:58:21;;;;;;;;;;;;;;;26.59;100.00;97657.44;4886440;29;19954;-71
2022/05/28 10:00:49;;;;;;;;;;;;;;;26.63;100.00;97650.13;4887852;29;19954;-71
2022/05/28 10:06:21;;;;;;;;;;;;;;;26.74;100.00;97644.41;4913907;29;19971;-71
2022/05/28 10:08:49;;;;;;;;;;;;;;;26.92;100.00;97643.09;4909501;29;19950;-71
2022/05/28 10:11:22;;;;;;;;;;;;;;;26.95;100.00;97639.16;4905875;29;20245;-71
2022/05/28 10:13:51;;;;;;;;;;;;;;;26.97;100.00;97644.41;4905598;29;19944;-71
2022/05/28 10:16:23;;;;;;;;;;;;;;;27.09;100.00;97640.19;4915033;29;19955;-71
2022/05/28 10:19:14;;;;;;;;;;;;;;;26.90;100.00;97644.94;4903991;29;19960;-71
2022/05/28 10:21:47;;;;;;;;;;;;;;;27.04;100.00;97641.00;4904870;29;19967;-71
2022/05/28 10:24:18;;;;;;;;;;;;;;;27.14;100.00;97643.03;4905886;29;19956;-71
2022/05/28 10:27:05;;;;;;;;;;;;;;;26.89;100.00;97643.38;4919063;29;19975;-71
2022/05/28 10:29:41;;;;;;;;;;;;;;;26.65;100.00;97629.53;4909405;29;20259;-71
2022/05/28 10:32:23;;;;;;;;;;;;;;;26.94;100.00;97625.34;4916852;29;20336;-71
2022/05/28 10:35:01;;;;;;;;;;;;;;;27.13;100.00;97627.13;4913339;29;19952;-71
2022/05/28 10:37:29;;;;;;;;;;;;;;;27.08;100.00;97630.00;4916059;29;19948;-71
2022/05/28 10:40:05;;;;;;;;;;;;;;;27.10;100.00;97627.38;4904606;29;19953;-71
2022/05/28 10:42:33;;;;;;;;;;;;;;;27.16;100.00;97619.56;4905794;29;20358;-71
2022/05/28 10:45:00;;;;;;;;;;;;;;;27.13;100.00;97623.47;4908447;29;19955;-71
2022/05/28 10:47:39;;;;;;;;;;;;;;;27.08;100.00;97616.44;4910926;29;19985;-71
2022/05/28 10:50:16;;;;;;;;;;;;;;;26.93;100.00;97610.22;4912590;29;19952;-71
2022/05/28 10:52:43;;;;;;;;;;;;;;;26.95;100.00;97609.72;4905244;29;19954;-71
2022/05/28 10:55:13;;;;;;;;;;;;;;;27.00;100.00;97615.41;4904203;29;19954;-71
2022/05/28 10:57:55;;;;;;;;;;;;;;;27.32;100.00;97612.97;4910769;29;19952;-71
2022/05/28 11:00:29;;;;;;;;;;;;;;;27.29;100.00;97611.19;4909422;29;20242;-71
2022/05/28 11:03:14;;;;;;;;;;;;;;;27.32;100.00;97616.63;4904905;29;19957;-71
2022/05/28 11:05:49;;;;;;;;;;;;;;;27.31;100.00;97606.44;4907843;29;19974;-71
2022/05/28 11:08:22;;;;;;;;;;;;;;;27.29;100.00;97606.19;4921330;29;20244;-71
2022/05/28 11:10:49;;;;;;;;;;;;;;;27.39;100.00;97592.34;4889915;29;20347;-71
2022/05/28 11:13:35;;;;;;;;;;;;;;;27.14;100.00;97596.34;4887384;29;19955;-71
2022/05/28 11:16:02;;;;;;;;;;;;;;;27.11;100.00;97589.56;4903770;29;19957;-71
2022/05/28 11:18:31;;;;;;;;;;;;;;;26.97;100.00;97578.41;4904164;29;19948;-71
2022/05/28 11:20:58;;;;;;;;;;;;;;;27.21;100.00;97587.19;4904104;29;19951;-71
2022/05/28 11:23:28;;;;;;;;;;;;;;;27.24;100.00;97577.53;4903422;29;19979;-71
2022/05/28 11:26:02;;;;;;;;;;;;;;;27.22;100.00;97566.56;4903176;29;19957;-71
2022/05/28 11:28:34;;;;;;;;;;;;;;;27.22;100.00;97562.91;4897660;29;19971;-71
2022/05/28 11:31:16;;;;;;;;;;;;;;;26.83;100.00;97565.91;4916548;29;19947;-71
2022/05/28 11:33:46;;;;;;;;;;;;;;;26.65;100.00;97563.56;4893663;29;19973;-71
2022/05/28 11:36:20;;;;;;;;;;;;;;;26.73;100.00;97565.38;4902911;29;19957;-71
2022/05/28 11:38:47;;;;;;;;;;;;;;;27.05;100.00;97560.09;4904621;29;20262;-71
2022/05/28 11:41:47;;;;;;;;;;;;;;;27.30;100.00;97552.44;4906545;29;19949;-71
2022/05/28 11:44:19;;;;;;;;;;;;;;;27.22;100.00;97542.81;4871138;29;19959;-71
2022/05/28 11:47:05;;;;;;;;;;;;;;;26.91;100.00;97546.06;4903534;29;19974;-71
2022/05/28 11:52:41;;;;;;;;;;;;;;;27.08;100.00;97518.09;4902804;29;19947;-71
2022/05/28 11:55:18;;;;;;;;;;;;;;;27.00;100.00;97519.94;4902449;29;19945;-71
2022/05/28 11:57:48;;;;;;;;;;;;;;;27.23;100.00;97512.81;4901906;29;19958;-71
2022/05/28 12:00:16;;;;;;;;;;;;;;;26.94;100.00;97519.97;4902361;29;19951;-71
2022/05/28 12:02:46;;;;;;;;;;;;;;;26.98;100.00;97519.69;4902164;29;19956;-71
2022/05/28 12:05:21;;;;;;;;;;;;;;;27.00;100.00;97511.31;4902245;29;20370;-71
2022/05/28 12:07:57;;;;;;;;;;;;;;;27.19;100.00;97518.06;4904472;29;19970;-71
2022/05/28 12:10:32;;;;;;;;;;;;;;;27.30;100.00;97513.03;4897094;29;20247;-71
2022/05/28 12:13:01;;;;;;;;;;;;;;;27.29;100.00;97508.59;4903050;29;19952;-71
2022/05/28 12:15:31;;;;;;;;;;;;;;;27.08;100.00;97495.13;4902680;29;19952;-71
2022/05/28 12:18:06;;;;;;;;;;;;;;;26.82;100.00;97480.38;4904754;29;19956;-71
2022/05/28 12:20:49;;;;;;;;;;;;;;;26.56;100.00;97474.94;4884918;29;19954;-71
2022/05/28 12:23:26;;;;;;;;;;;;;;;26.37;100.00;97477.59;4903204;29;20274;-71
2022/05/28 12:25:54;;;;;;;;;;;;;;;26.04;100.00;97469.78;4902314;29;20227;-71
2022/05/28 12:28:26;;;;;;;;;;;;;;;25.90;100.00;97455.72;4901552;29;19978;-71
2022/05/28 12:30:54;;;;;;;;;;;;;;;25.82;100.00;97455.47;4901133;29;19957;-71
2022/05/28 12:33:26;;;;;;;;;;;;;;;25.83;100.00;97457.03;4902067;29;20243;-71
2022/05/28 12:35:58;;;;;;;;;;;;;;;25.73;100.00;97460.69;4902896;29;19954;-71
2022/05/28 12:38:37;;;;;;;;;;;;;;;25.63;100.00;97459.41;4901892;29;19951;-71
2022/05/28 12:41:05;;;;;;;;;;;;;;;25.62;100.00;97461.47;4900932;29;19951;-71
2022/05/28 12:43:36;;;;;;;;;;;;;;;25.57;100.00;97456.53;4914967;29;19978;-71
2022/05/28 12:46:17;;;;;;;;;;;;;;;25.65;100.00;97456.78;4901772;29;20333;-71
2022/05/28 12:48:47;;;;;;;;;;;;;;;25.68;100.00;97464.31;4905161;29;19968;-71
2022/05/28 12:51:14;;;;;;;;;;;;;;;25.83;100.00;97474.22;4914059;29;20335;-71
2022/05/28 12:53:51;;;;;;;;;;;;;;;25.80;100.00;97489.59;4902058;29;19958;-71
2022/05/28 12:56:24;;;;;;;;;;;;;;;25.81;100.00;97484.63;4901938;29;19951;-71
2022/05/28 12:58:52;;;;;;;;;;;;;;;25.68;100.00;97473.69;4901226;29;19955;-71
2022/05/28 13:01:29;;;;;;;;;;;;;;;25.61;100.00;97470.56;4899503;29;19952;-71
2022/05/28 13:03:57;;;;;;;;;;;;;;;25.62;100.00;97449.22;4895994;29;20249;-71
2022/05/28 13:06:35;;;;;;;;;;;;;;;25.51;100.00;97443.47;4899728;29;19952;-71
2022/05/28 13:09:04;;;;;;;;;;;;;;;25.50;100.00;97434.13;4900494;29;19967;-71
2022/05/28 13:11:42;;;;;;;;;;;;;;;25.37;100.00;97426.03;4900382;29;19950;-71
2022/05/28 13:14:29;;;;;;;;;;;;;;;25.37;100.00;97420.28;4899957;29;19958;-71
2022/05/28 13:17:10;;;;;;;;;;;;;;;25.28;100.00;97434.06;4902429;29;20227;-71
2022/05/28 13:20:00;;;;;;;;;;;;;;;25.25;100.00;97435.88;4905672;29;19949;-71
2022/05/28 13:22:46;;;;;;;;;;;;;;;25.08;100.00;97445.72;4890607;29;19966;-71
2022/05/28 13:25:16;;;;;;;;;;;;;;;25.01;100.00;97446.22;4904473;29;19947;-71
2022/05/28 13:27:43;;;;;;;;;;;;;;;24.90;100.00;97435.53;4901531;29;19964;-71
2022/05/28 13:30:18;;;;;;;;;;;;;;;24.77;100.00;97423.81;4901691;29;19955;-71
2022/05/28 13:32:54;;;;;;;;;;;;;;;24.60;100.00;97423.69;4902173;29;19979;-71
2022/05/28 13:35:21;;;;;;;;;;;;;;;24.42;100.00;97423.34;4912325;29;19948;-71
2022/05/28 13:37:57;;;;;;;;;;;;;;;24.35;100.00;97420.97;4904071;29;19955;-71
2022/05/28 13:40:27;;;;;;;;;;;;;;;24.27;100.00;97437.03;4903219;29;19952;-71
2022/05/28 13:42:58;;;;;;;;;;;;;;;24.09;100.00;97421.84;4901492;29;19956;-71
2022/05/28 13:45:27;;;;;;;;;;;;;;;23.94;100.00;97415.50;4900935;29;20346;-71
2022/05/28 13:48:01;;;;;;;;;;;;;;;23.91;100.00;97425.09;4901845;29;19971;-71
2022/05/28 13:50:28;;;;;;;;;;;;;;;23.84;100.00;97419.06;4905084;29;19952;-71
2022/05/28 13:52:57;;;;;;;;;;;;;;;23.78;100.00;97423.94;4902267;29;20323;-71
2022/05/28 13:55:26;;;;;;;;;;;;;;;23.70;100.00;97415.06;4914815;29;19955;-71
2022/05/28 13:57:53;;;;;;;;;;;;;;;23.60;100.00;97424.34;4901819;29;19956;-71
2022/05/28 14:00:25;;;;;;;;;;;;;;;23.46;100.00;97421.09;4901139;29;19951;-71
2022/05/28 14:02:55;;;;;;;;;;;;;;;23.37;100.00;97434.78;4901771;29;19933;-70
2022/05/28 14:05:42;;;;;;;;;;;;;;;23.25;100.00;97442.41;4901990;29;19952;-71
2022/05/28 14:08:12;;;;;;;;;;;;;;;22.74;100.00;97430.97;4901894;29;19971;-71
2022/05/28 14:10:42;;;;;;;;;;;;;;;22.21;100.00;97452.00;4901157;29;20431;-71
2022/05/28 14:13:20;;;;;;;;;;;;;;;21.63;100.00;97491.94;4901397;29;19948;-71
2022/05/28 14:15:51;;;;;;;;;;;;;;;21.17;100.00;97499.38;4900980;29;19955;-71
2022/05/28 14:18:23;;;;;;;;;;;;;;;20.86;100.00;97508.28;4901200;29;19947;-71
2022/05/28 14:21:00;;;;;;;;;;;;;;;20.71;100.00;97522.44;4901103;29;19973;-71
2022/05/28 14:23:27;;;;;;;;;;;;;;;20.50;100.00;97534.91;4901791;29;19975;-71
2022/05/28 14:25:55;;;;;;;;;;;;;;;20.41;100.00;97517.94;4901505;29;19953;-71
2022/05/28 14:28:22;;;;;;;;;;;;;;;20.34;100.00;97486.25;4905079;29;19971;-71
2022/05/28 14:30:50;;;;;;;;;;;;;;;20.20;100.00;97474.31;4904566;29;20066;-71
2022/05/28 14:33:37;;;;;;;;;;;;;;;20.24;100.00;97480.66;4888339;29;19955;-71
2022/05/28 14:36:06;;;;;;;;;;;;;;;20.17;100.00;97492.31;4904993;29;20247;-71
2022/05/28 14:38:33;;;;;;;;;;;;;;;20.07;100.00;97487.97;4904577;29;19954;-71
2022/05/28 14:41:06;;;;;;;;;;;;;;;19.99;100.00;97489.56;4904377;29;19953;-71
2022/05/28 14:43:34;;;;;;;;;;;;;;;19.95;100.00;97506.00;4911371;29;19949;-71
2022/05/28 14:46:08;;;;;;;;;;;;;;;20.04;100.00;97497.44;4910561;29;19953;-71
2022/05/28 14:48:35;;;;;;;;;;;;;;;19.98;100.00;97488.00;4909147;29;19961;-71
2022/05/28 14:51:04;;;;;;;;;;;;;;;19.92;100.00;97467.22;4914128;29;19947;-71
2022/05/28 14:53:37;;;;;;;;;;;;;;;19.73;100.00;97457.22;4923575;29;19948;-71
2022/05/28 14:56:20;;;;;;;;;;;;;;;19.84;100.00;97477.34;4923469;29;19945;-71
2022/05/28 14:58:49;;;;;;;;;;;;;;;19.78;100.00;97462.25;4923517;29;19944;-71
2022/05/28 15:01:25;;;;;;;;;;;;;;;19.85;100.00;97459.06;4923344;29;19951;-70
2022/05/28 15:03:52;;;;;;;;;;;;;;;19.70;100.00;97461.03;4913373;29;19955;-70
2022/05/28 15:06:21;;;;;;;;;;;;;;;19.66;100.00;97461.19;4900630;29;19946;-71
2022/05/28 15:08:49;;;;;;;;;;;;;;;19.57;100.00;97438.53;4906658;29;20317;-71
2022/05/28 15:11:27;;;;;;;;;;;;;;;19.54;100.00;97433.03;4911134;29;19977;-71
2022/05/28 15:14:04;;;;;;;;;;;;;;;19.62;100.00;97437.09;4904266;29;19966;-71
2022/05/28 15:16:31;;;;;;;;;;;;;;;19.47;100.00;97437.00;4905369;29;19960;-71
2022/05/28 15:18:59;;;;;;;;;;;;;;;19.53;100.00;97439.97;4904850;29;19949;-71
2022/05/28 15:21:26;;;;;;;;;;;;;;;19.24;100.00;97428.38;4903778;29;19957;-71
2022/05/28 15:23:54;;;;;;;;;;;;;;;19.37;100.00;97431.81;4909528;29;19948;-71
2022/05/28 15:26:21;;;;;;;;;;;;;;;19.22;100.00;97423.19;4903468;29;19950;-71
2022/05/28 15:28:48;;;;;;;;;;;;;;;19.17;100.00;97408.88;4903244;29;20294;-71
2022/05/28 15:31:15;;;;;;;;;;;;;;;19.15;100.00;97400.84;4903612;29;19953;-71
2022/05/28 15:33:43;;;;;;;;;;;;;;;19.20;100.00;97390.91;4903577;29;19948;-71
2022/05/28 15:38:57;;;;;;;;;;;;;;;19.29;100.00;97373.88;4903331;29;19946;-71
2022/05/28 15:41:24;;;;;;;;;;;;;;;19.42;100.00;97363.94;4903422;29;19949;-71
2022/05/28 15:43:52;;;;;;;;;;;;;;;19.56;100.00;97349.03;4903696;29;19948;-71
2022/05/28 15:46:20;;;;;;;;;;;;;;;19.65;100.00;97345.38;4895943;29;19958;-71
2022/05/28 15:48:47;;;;;;;;;;;;;;;19.68;100.00;97339.50;4903615;29;19964;-71
2022/05/28 15:51:15;;;;;;;;;;;;;;;19.79;100.00;97333.31;4903576;29;19948;-71
2022/05/28 15:53:42;;;;;;;;;;;;;;;19.97;100.00;97332.41;4903202;29;20218;-71
2022/05/28 15:56:13;;;;;;;;;;;;;;;20.11;100.00;97329.63;4903476;29;19946;-71
2022/05/28 15:58:41;;;;;;;;;;;;;;;20.20;100.00;97321.03;4903846;29;19949;-71
2022/05/28 16:01:17;;;;;;;;;;;;;;;20.44;100.00;97329.53;4902987;29;19953;-71
2022/05/28 16:03:45;;;;;;;;;;;;;;;20.36;100.00;97336.06;4915564;29;19949;-71
2022/05/28 16:06:13;;;;;;;;;;;;;;;20.44;100.00;97342.94;4911192;29;19947;-71
2022/05/28 16:08:42;;;;;;;;;;;;;;;20.50;100.00;97343.81;4907445;29;19965;-71
2022/05/28 16:11:29;;;;;;;;;;;;;;;20.36;100.00;97347.44;4906004;29;19953;-71
2022/05/28 16:13:58;;;;;;;;;;;;;;;20.35;100.00;97348.69;4906052;29;19956;-71
2022/05/28 16:16:27;;;;;;;;;;;;;;;20.28;100.00;97347.81;4912044;29;19949;-71
2022/05/28 16:18:55;;;;;;;;;;;;;;;20.21;100.00;97348.16;4905112;29;20319;-71
2022/05/28 16:21:23;;;;;;;;;;;;;;;20.19;100.00;97341.38;4904442;29;19951;-71
2022/05/28 16:23:50;;;;;;;;;;;;;;;20.10;100.00;97353.56;4907924;29;19948;-71
2022/05/28 16:26:27;;;;;;;;;;;;;;;20.16;100.00;97353.69;4905114;29;20331;-71
2022/05/28 16:28:56;;;;;;;;;;;;;;;20.17;100.00;97363.81;4907882;29;19972;-71
2022/05/28 16:31:24;;;;;;;;;;;;;;;20.17;100.00;97346.78;4907341;29;19949;-71
2022/05/28 16:33:52;;;;;;;;;;;;;;;20.23;100.00;97328.59;4910506;29;19947;-71
2022/05/28 16:36:19;;;;;;;;;;;;;;;20.24;100.00;97323.72;4894619;29;20275;-71
2022/05/28 16:38:47;;;;;;;;;;;;;;;20.11;100.00;97326.78;4902643;29;19946;-71
2022/05/28 16:41:14;;;;;;;;;;;;;;;20.12;100.00;97311.31;4902588;29;19958;-71
2022/05/28 16:43:42;;;;;;;;;;;;;;;20.21;100.00;97325.44;4902190;29;19973;-71
2022/05/28 16:53:06;;;;;;;;;;;;;;;20.11;100.00;97368.56;4876438;29;19966;-70
2022/05/28 16:55:34;;;;;;;;;;;;;;;20.14;100.00;97385.44;4888970;29;19954;-71
2022/05/28 16:58:01;;;;;;;;;;;;;;;20.03;100.00;97407.88;4883600;29;19952;-71
2022/05/28 17:00:30;;;;;;;;;;;;;;;20.00;100.00;97425.84;4886252;29;20247;-69
2022/05/28 17:02:57;;;;;;;;;;;;;;;19.89;100.00;97427.66;4881025;29;19953;-69
2022/05/28 17:05:24;;;;;;;;;;;;;;;19.80;100.00;97434.19;4888538;29;20022;-69
2022/05/28 17:07:52;;;;;;;;;;;;;;;19.80;100.00;97442.69;4886327;29;19949;-69
2022/05/28 17:10:19;;;;;;;;;;;;;;;19.82;100.00;97460.03;4884544;29;19964;-69
2022/05/28 17:12:47;;;;;;;;;;;;;;;19.75;100.00;97462.41;4906533;29;19948;-69
2022/05/28 17:15:15;;;;;;;;;;;;;;;19.69;100.00;97462.28;4901521;29;19958;-69
2022/05/28 17:17:42;;;;;;;;;;;;;;;19.68;100.00;97455.81;4904903;29;20252;-69
2022/05/28 17:20:10;;;;;;;;;;;;;;;19.72;100.00;97458.50;4901557;29;19955;-69
2022/05/28 17:22:38;;;;;;;;;;;;;;;19.60;100.00;97457.44;4901617;29;19953;-69
2022/05/28 17:25:26;;;;;;;;;;;;;;;19.59;100.00;97466.41;4891543;29;19973;-69
2022/05/28 17:27:54;;;;;;;;;;;;;;;19.52;100.00;97481.72;4903047;29;19947;-69
2022/05/28 17:30:21;;;;;;;;;;;;;;;19.31;100.00;97494.03;4901980;29;19964;-69
2022/05/28 17:32:49;;;;;;;;;;;;;;;19.20;100.00;97518.44;4902607;29;20248;-69
2022/05/28 17:35:17;;;;;;;;;;;;;;;19.10;100.00;97537.50;4902286;29;19952;-69
2022/05/28 17:37:46;;;;;;;;;;;;;;;19.02;100.00;97559.72;4902739;29;19955;-69
2022/05/28 17:40:15;;;;;;;;;;;;;;;18.81;100.00;97574.81;4902487;29;20350;-69
2022/05/28 17:42:42;;;;;;;;;;;;;;;18.67;100.00;97577.47;4901513;29;19959;-69
2022/05/28 17:45:12;;;;;;;;;;;;;;;18.67;100.00;97580.28;4901753;29;19944;-69
2022/05/28 17:47:42;;;;;;;;;;;;;;;18.57;100.00;97582.31;4901114;29;19953;-69
2022/05/28 17:50:10;;;;;;;;;;;;;;;18.60;100.00;97611.75;4901528;29;19974;-69
2022/05/28 17:52:37;;;;;;;;;;;;;;;18.32;100.00;97605.19;4902004;29;19971;-69
2022/05/28 17:55:08;;;;;;;;;;;;;;;18.35;100.00;97605.03;4903892;29;19965;-69
2022/05/28 17:57:35;;;;;;;;;;;;;;;18.31;100.00;97615.69;4901328;29;19953;-69
2022/05/28 18:00:04;;;;;;;;;;;;;;;18.27;100.00;97626.38;4902362;29;19952;-69
2022/05/28 18:02:38;;;;;;;;;;;;;;;18.25;100.00;97620.41;4903981;29;19948;-70
2022/05/28 18:05:07;;;;;;;;;;;;;;;18.15;100.00;97637.81;4910711;29;20499;-69
2022/05/28 18:07:34;;;;;;;;;;;;;;;18.02;100.00;97640.72;4919655;29;19973;-69
2022/05/28 18:10:01;;;;;;;;;;;;;;;18.05;100.00;97648.28;4923858;29;20407;-69
2022/05/28 18:12:28;;;;;;;;;;;;;;;18.02;100.00;97677.50;4882803;29;19953;-69
2022/05/28 18:14:56;;;;;;;;;;;;;;;17.97;100.00;97671.69;4905119;29;20271;-69
2022/05/28 18:17:28;;;;;;;;;;;;;;;17.81;100.00;97683.19;4905666;29;20346;-69
2022/05/28 18:19:56;;;;;;;;;;;;;;;17.79;100.00;97692.13;4905296;29;20243;-69
2022/05/28 18:22:23;;;;;;;;;;;;;;;17.70;100.00;97692.09;4904534;29;19950;-69
2022/05/28 18:24:50;;;;;;;;;;;;;;;17.62;100.00;97685.91;4911617;29;19954;-69
2022/05/28 18:27:19;;;;;;;;;;;;;;;17.69;100.00;97679.97;4906192;29;19957;-70
2022/05/28 18:29:47;;;;;;;;;;;;;;;17.54;100.00;97667.59;4905638;29;19965;-69
2022/05/28 18:32:16;;;;;;;;;;;;;;;17.59;100.00;97669.03;4920313;29;19954;-69
2022/05/28 18:34:45;;;;;;;;;;;;;;;17.49;100.00;97648.38;4905562;29;19960;-69
2022/05/28 18:37:13;;;;;;;;;;;;;;;17.48;100.00;97623.41;4908514;29;19956;-69
2022/05/28 18:39:45;;;;;;;;;;;;;;;17.39;100.00;97617.66;4910099;29;19953;-69